createdAt,value
2022-08-18T00:01:22.458Z,93.18
2022-08-18T00:03:55.968Z,93.00
2022-08-18T00:06:28.695Z,92.77
2022-08-18T00:08:58.946Z,92.86
2022-08-18T00:11:27.734Z,92.65
2022-08-18T00:13:57.246Z,92.76
2022-08-18T00:16:25.819Z,92.40
2022-08-18T00:18:54.075Z,92.38
2022-08-18T00:21:22.354Z,92.67
2022-08-18T00:23:50.660Z,92.47
2022-08-18T00:26:18.952Z,92.24
2022-08-18T00:28:47.208Z,92.52
2022-08-18T00:31:16.688Z,92.70
2022-08-18T00:33:44.972Z,92.65
2022-08-18T00:36:14.703Z,92.58
2022-08-18T00:38:42.845Z,92.78
2022-08-18T00:41:11.008Z,92.62
2022-08-18T00:43:45.056Z,92.81
2022-08-18T00:46:20.321Z,92.53
2022-08-18T00:48:49.509Z,92.53
2022-08-18T00:51:27.500Z,92.66
2022-08-18T00:54:02.849Z,92.55
2022-08-18T00:56:37.457Z,93.16
2022-08-18T00:59:09.832Z,93.33
2022-08-18T01:01:41.361Z,92.90
2022-08-18T01:04:15.815Z,93.02
2022-08-18T01:06:51.802Z,93.16
2022-08-18T01:09:20.451Z,93.28
2022-08-18T01:11:48.812Z,93.19
2022-08-18T01:14:18.252Z,93.01
2022-08-18T01:17:05.829Z,93.37
2022-08-18T01:19:51.823Z,93.60
2022-08-18T01:22:26.789Z,93.70
2022-08-18T01:25:17.880Z,93.72
2022-08-18T01:27:46.481Z,93.99
2022-08-18T01:30:19.088Z,94.07
2022-08-18T01:32:47.248Z,93.80
2022-08-18T01:35:18.357Z,93.91
2022-08-18T01:37:46.559Z,93.51
2022-08-18T01:41:17.681Z,93.59
2022-08-18T01:43:07.197Z,93.67
2022-08-18T01:45:35.357Z,93.65
2022-08-18T01:48:04.715Z,93.67
2022-08-18T01:50:35.172Z,93.49
2022-08-18T01:53:05.545Z,93.36
2022-08-18T01:55:36.229Z,93.90
2022-08-18T01:58:05.515Z,93.70
2022-08-18T02:00:33.796Z,93.68
2022-08-18T02:03:03.091Z,93.89
2022-08-18T02:05:39.585Z,93.50
2022-08-18T02:08:08.672Z,93.71
2022-08-18T02:10:38.621Z,93.94
2022-08-18T02:13:06.850Z,94.02
2022-08-18T02:15:35.997Z,93.83
2022-08-18T02:18:04.442Z,93.84
2022-08-18T02:20:32.864Z,93.90
2022-08-18T02:23:03.030Z,93.99
2022-08-18T02:25:31.273Z,93.77
2022-08-18T02:28:00.783Z,93.98
2022-08-18T02:30:28.899Z,93.76
2022-08-18T02:32:59.140Z,93.42
2022-08-18T02:35:27.424Z,93.36
2022-08-18T02:37:55.545Z,93.49
2022-08-18T02:40:23.761Z,93.46
2022-08-18T02:42:52.773Z,93.30
2022-08-18T02:45:23.648Z,93.37
2022-08-18T02:47:54.076Z,92.93
2022-08-18T02:50:22.860Z,93.37
2022-08-18T02:52:51.049Z,93.29
2022-08-18T02:55:20.149Z,93.21
2022-08-18T02:57:50.080Z,93.32
2022-08-18T03:00:21.330Z,93.16
2022-08-18T03:02:52.107Z,92.95
2022-08-18T03:05:21.155Z,93.10
2022-08-18T03:07:51.052Z,93.04
2022-08-18T03:10:31.388Z,93.09
2022-08-18T03:13:02.277Z,93.04
2022-08-18T03:15:32.302Z,93.19
2022-08-18T03:18:02.131Z,93.13
2022-08-18T03:20:31.416Z,93.17
2022-08-18T03:23:05.672Z,92.90
2022-08-18T03:25:38.429Z,93.01
2022-08-18T03:28:07.024Z,92.85
2022-08-18T03:30:36.996Z,92.91
2022-08-18T03:33:05.549Z,92.80
2022-08-18T03:35:36.946Z,92.81
2022-08-18T03:38:05.950Z,92.83
2022-08-18T03:40:34.673Z,92.90
2022-08-18T03:43:48.589Z,92.78
2022-08-18T03:45:56.235Z,92.79
2022-08-18T03:48:25.386Z,92.93
2022-08-18T03:50:53.586Z,92.72
2022-08-18T03:53:21.778Z,93.03
2022-08-18T03:55:49.926Z,92.96
2022-08-18T03:58:18.043Z,92.89
2022-08-18T04:00:46.215Z,92.98
2022-08-18T04:03:21.368Z,92.96
2022-08-18T04:05:49.466Z,93.14
2022-08-18T04:08:18.205Z,92.79
2022-08-18T04:10:46.799Z,93.05
2022-08-18T04:13:14.999Z,93.04
2022-08-18T04:15:43.252Z,93.10
2022-08-18T04:18:12.267Z,93.26
2022-08-18T04:20:58.915Z,92.79
2022-08-18T04:23:28.152Z,93.23
2022-08-18T04:25:58.971Z,92.94
2022-08-18T04:28:28.288Z,93.17
2022-08-18T04:30:59.366Z,92.92
2022-08-18T04:33:28.503Z,93.45
2022-08-18T04:35:57.989Z,93.27
2022-08-18T04:38:26.452Z,92.87
2022-08-18T04:40:54.727Z,92.80
2022-08-18T04:43:23.231Z,93.02
2022-08-18T04:45:52.558Z,93.23
2022-08-18T04:48:20.825Z,93.19
2022-08-18T04:50:51.119Z,92.84
2022-08-18T04:53:34.524Z,92.91
2022-08-18T04:56:02.725Z,92.90
2022-08-18T04:58:31.176Z,92.86
2022-08-18T05:01:02.443Z,92.84
2022-08-18T05:03:30.662Z,92.80
2022-08-18T05:06:00.443Z,92.93
2022-08-18T05:08:30.307Z,92.78
2022-08-18T05:11:03.897Z,92.91
2022-08-18T05:13:32.604Z,93.09
2022-08-18T05:16:16.708Z,92.82
2022-08-18T05:18:46.517Z,92.76
2022-08-18T05:21:15.523Z,92.71
2022-08-18T05:23:47.479Z,92.75
2022-08-18T05:26:17.428Z,92.87
2022-08-18T05:28:46.715Z,92.94
2022-08-18T05:31:17.888Z,93.11
2022-08-18T05:33:47.566Z,92.76
2022-08-18T05:36:31.088Z,93.05
2022-08-18T05:39:08.690Z,93.28
2022-08-18T05:41:40.337Z,93.30
2022-08-18T05:44:11.875Z,93.07
2022-08-18T05:46:46.318Z,93.56
2022-08-18T05:49:15.700Z,92.96
2022-08-18T05:51:48.427Z,93.07
2022-08-18T05:54:38.454Z,92.84
2022-08-18T05:57:18.573Z,92.89
2022-08-18T05:59:49.106Z,92.63
2022-08-18T06:02:25.496Z,92.18
2022-08-18T06:04:56.995Z,92.04
2022-08-18T06:07:34.245Z,91.86
2022-08-18T06:10:06.853Z,91.58
2022-08-18T06:12:46.597Z,91.42
2022-08-18T06:15:20.469Z,91.20
2022-08-18T06:18:21.824Z,90.84
2022-08-18T06:21:26.463Z,90.73
2022-08-18T06:24:08.185Z,90.75
2022-08-18T06:26:48.022Z,90.32
2022-08-18T06:29:36.460Z,90.18
2022-08-18T06:32:14.084Z,89.58
2022-08-18T06:34:59.387Z,89.16
2022-08-18T06:37:56.424Z,88.81
2022-08-18T06:40:24.658Z,88.86
2022-08-18T06:42:54.197Z,88.74
2022-08-18T06:45:32.892Z,88.16
2022-08-18T06:48:15.427Z,87.70
2022-08-18T06:50:54.134Z,87.40
2022-08-18T06:53:27.736Z,87.16
2022-08-18T06:55:56.775Z,86.81
2022-08-18T06:58:31.451Z,86.21
2022-08-18T07:01:06.187Z,86.01
2022-08-18T07:03:47.804Z,86.12
2022-08-18T07:06:31.600Z,86.08
2022-08-18T07:09:24.057Z,85.74
2022-08-18T07:12:06.876Z,85.54
2022-08-18T07:14:48.557Z,85.09
2022-08-18T07:17:43.616Z,84.45
2022-08-18T07:20:22.035Z,84.33
2022-08-18T07:22:56.679Z,84.02
2022-08-18T07:25:32.229Z,83.87
2022-08-18T07:28:01.938Z,83.20
2022-08-18T07:30:36.941Z,83.10
2022-08-18T07:33:19.842Z,83.01
2022-08-18T07:35:56.506Z,82.89
2022-08-18T07:38:42.761Z,82.49
2022-08-18T07:41:20.269Z,82.67
2022-08-18T07:44:07.529Z,82.19
2022-08-18T07:46:47.352Z,82.08
2022-08-18T07:49:30.315Z,82.07
2022-08-18T07:52:06.993Z,82.20
2022-08-18T07:55:07.698Z,82.41
2022-08-18T07:57:46.899Z,83.32
2022-08-18T08:00:41.170Z,83.75
2022-08-18T08:03:30.560Z,83.33
2022-08-18T08:06:07.255Z,82.81
2022-08-18T08:08:44.248Z,82.50
2022-08-18T08:11:28.894Z,82.39
2022-08-18T08:14:25.660Z,82.24
2022-08-18T08:17:22.847Z,81.82
2022-08-18T08:20:19.203Z,82.09
2022-08-18T08:23:03.747Z,81.29
2022-08-18T08:25:46.923Z,81.07
2022-08-18T08:28:29.914Z,80.55
2022-08-18T08:31:35.314Z,80.25
2022-08-18T08:34:08.747Z,80.27
2022-08-18T08:36:44.915Z,78.90
2022-08-18T08:39:20.842Z,77.64
2022-08-18T08:41:57.898Z,77.00
2022-08-18T08:44:59.193Z,75.56
2022-08-18T08:47:36.672Z,75.88
2022-08-18T08:50:10.288Z,74.90
2022-08-18T08:52:46.968Z,73.40
2022-08-18T08:55:21.443Z,72.90
2022-08-18T08:57:55.024Z,73.17
2022-08-18T09:00:23.398Z,72.99
2022-08-18T09:03:17.766Z,72.54
2022-08-18T09:06:10.922Z,70.98
2022-08-18T09:09:06.371Z,70.92
2022-08-18T09:12:08.578Z,70.39
2022-08-18T09:15:18.478Z,69.71
2022-08-18T09:18:28.551Z,68.50
2022-08-18T09:21:09.446Z,68.10
2022-08-18T09:23:47.304Z,67.74
2022-08-18T09:26:40.020Z,67.03
2022-08-18T09:29:23.305Z,67.04
2022-08-18T09:32:36.814Z,67.14
2022-08-18T09:35:44.583Z,66.97
2022-08-18T09:38:42.168Z,66.60
2022-08-18T09:41:35.589Z,66.34
2022-08-18T09:44:21.784Z,65.90
2022-08-18T09:46:59.382Z,65.74
2022-08-18T09:49:51.014Z,65.84
2022-08-18T09:52:58.944Z,66.26
2022-08-18T09:56:01.660Z,66.49
2022-08-18T09:59:02.952Z,66.16
2022-08-18T10:01:42.555Z,66.29
2022-08-18T10:04:31.824Z,66.81
2022-08-18T10:07:21.722Z,66.82
2022-08-18T10:10:12.796Z,66.12
2022-08-18T10:13:07.854Z,67.20
2022-08-18T10:16:10.275Z,67.50
2022-08-18T10:19:02.791Z,68.27
2022-08-18T10:22:07.576Z,67.43
2022-08-18T10:24:40.959Z,66.75
2022-08-18T10:27:39.054Z,66.50
2022-08-18T10:31:06.222Z,66.40
2022-08-18T10:34:05.535Z,66.50
2022-08-18T10:36:53.015Z,66.60
2022-08-18T10:39:24.430Z,66.60
2022-08-18T10:42:03.369Z,66.47
2022-08-18T10:44:38.535Z,64.93
2022-08-18T10:47:24.957Z,64.49
2022-08-18T10:50:06.819Z,64.56
2022-08-18T10:53:23.880Z,63.42
2022-08-18T10:55:56.839Z,63.71
2022-08-18T10:59:16.103Z,64.19
2022-08-18T11:02:11.134Z,64.15
2022-08-18T11:04:46.895Z,64.38
2022-08-18T11:07:34.061Z,64.73
2022-08-18T11:10:58.212Z,64.45
2022-08-18T11:13:14.317Z,64.20
2022-08-18T11:16:10.251Z,64.58
2022-08-18T11:18:45.321Z,64.11
2022-08-18T11:21:42.395Z,63.94
2022-08-18T11:24:16.527Z,64.48
2022-08-18T11:26:52.505Z,64.40
2022-08-18T11:29:32.945Z,63.82
2022-08-18T11:32:09.269Z,64.19
2022-08-18T11:34:52.139Z,64.06
2022-08-18T11:37:28.054Z,63.34
2022-08-18T11:43:29.939Z,62.63
2022-08-18T11:46:16.989Z,63.35
2022-08-18T11:51:57.499Z,64.64
2022-08-18T11:54:50.261Z,65.39
2022-08-18T11:57:46.253Z,65.00
2022-08-18T12:00:44.339Z,65.43
2022-08-18T12:03:24.064Z,64.22
2022-08-18T12:05:56.636Z,63.27
2022-08-18T12:08:57.562Z,62.79
2022-08-18T12:11:28.935Z,62.10
2022-08-18T12:16:55.127Z,60.52
2022-08-18T12:19:25.325Z,59.75
2022-08-18T12:21:59.555Z,58.75
2022-08-18T12:27:24.565Z,57.24
2022-08-18T12:29:55.213Z,55.33
2022-08-18T12:32:50.231Z,55.17
2022-08-18T12:35:16.242Z,54.36
2022-08-18T12:40:40.246Z,52.56
2022-08-18T12:43:09.021Z,52.90
2022-08-18T12:45:38.124Z,53.38
2022-08-18T12:48:07.665Z,54.04
2022-08-18T12:50:50.167Z,54.16
2022-08-18T12:53:29.572Z,54.23
2022-08-18T12:56:10.623Z,54.68
2022-08-18T12:58:40.456Z,54.26
2022-08-18T13:01:08.941Z,53.28
2022-08-18T13:03:38.405Z,51.11
2022-08-18T13:06:11.490Z,49.55
2022-08-18T13:08:50.295Z,45.81
2022-08-18T13:11:23.805Z,45.03
2022-08-18T13:13:57.119Z,42.86
2022-08-18T13:16:38.545Z,41.62
2022-08-18T13:19:08.028Z,40.85
2022-08-18T13:21:41.288Z,39.12
2022-08-18T13:24:12.758Z,38.91
2022-08-18T13:26:46.768Z,37.84
2022-08-18T13:29:18.430Z,39.63
2022-08-18T13:31:55.466Z,39.83
2022-08-18T13:34:24.589Z,41.49
2022-08-18T13:36:52.691Z,42.19
2022-08-18T13:39:24.093Z,40.94
2022-08-18T13:41:55.410Z,40.09
2022-08-18T13:44:29.097Z,38.03
2022-08-18T13:46:57.580Z,36.86
2022-08-18T13:49:30.477Z,36.47
2022-08-18T13:52:00.865Z,34.22
2022-08-18T13:54:35.450Z,34.89
2022-08-18T13:57:06.695Z,35.75
2022-08-18T13:59:35.013Z,37.58
2022-08-18T14:02:08.584Z,38.55
2022-08-18T14:04:38.558Z,39.39
2022-08-18T14:07:11.064Z,39.75
2022-08-18T14:09:39.895Z,37.38
2022-08-18T14:12:23.388Z,35.86
2022-08-18T14:14:55.631Z,36.23
2022-08-18T14:17:26.788Z,36.01
2022-08-18T14:20:15.196Z,37.11
2022-08-18T14:23:21.729Z,36.90
2022-08-18T14:26:09.660Z,35.38
2022-08-18T14:28:41.277Z,33.49
2022-08-18T14:31:11.700Z,33.76
2022-08-18T14:33:51.574Z,35.32
2022-08-18T14:36:30.050Z,35.68
2022-08-18T14:38:59.227Z,36.72
2022-08-18T14:41:27.844Z,37.75
2022-08-18T14:44:12.525Z,38.34
2022-08-18T14:46:51.862Z,37.70
2022-08-18T14:49:28.280Z,37.55
2022-08-18T14:51:57.876Z,37.29
2022-08-18T14:54:28.632Z,34.44
2022-08-18T14:56:59.803Z,33.30
2022-08-18T14:59:30.767Z,33.33
2022-08-18T15:02:03.264Z,33.38
2022-08-18T15:04:32.301Z,34.96
2022-08-18T15:07:10.159Z,35.63
2022-08-18T15:09:40.978Z,37.48
2022-08-18T15:12:09.602Z,37.72
2022-08-18T15:14:44.181Z,38.09
2022-08-18T15:17:14.584Z,37.64
2022-08-18T15:19:58.994Z,38.46
2022-08-18T15:22:47.800Z,37.74
2022-08-18T15:25:33.940Z,38.39
2022-08-18T15:28:02.289Z,39.62
2022-08-18T15:30:32.119Z,40.92
2022-08-18T15:33:03.112Z,41.53
2022-08-18T15:35:32.283Z,41.66
2022-08-18T15:38:05.115Z,41.71
2022-08-18T15:40:41.391Z,41.25
2022-08-18T15:43:10.606Z,41.91
2022-08-18T15:45:56.244Z,41.80
2022-08-18T15:48:28.514Z,38.27
2022-08-18T15:50:57.770Z,34.97
2022-08-18T15:53:44.571Z,34.72
2022-08-18T15:56:16.068Z,32.81
2022-08-18T15:58:49.445Z,32.35
2022-08-18T16:01:30.223Z,31.15
2022-08-18T16:03:59.874Z,30.01
2022-08-18T16:06:32.376Z,29.50
2022-08-18T16:09:03.467Z,28.80
2022-08-18T16:11:33.006Z,28.21
2022-08-18T16:14:01.178Z,27.40
2022-08-18T16:16:36.333Z,27.52
2022-08-18T16:19:07.877Z,27.46
2022-08-18T16:21:40.269Z,27.32
2022-08-18T16:24:09.535Z,26.59
2022-08-18T16:26:37.684Z,26.33
2022-08-18T16:29:05.908Z,26.01
2022-08-18T16:31:35.381Z,25.62
2022-08-18T16:34:04.422Z,26.08
2022-08-18T16:36:32.494Z,25.05
2022-08-18T16:39:01.033Z,25.59
2022-08-18T16:41:30.404Z,25.48
2022-08-18T16:43:58.521Z,25.43
2022-08-18T16:46:29.413Z,25.28
2022-08-18T16:48:59.941Z,25.42
2022-08-18T16:51:31.447Z,24.97
2022-08-18T16:53:59.589Z,25.36
2022-08-18T16:56:30.848Z,25.46
2022-08-18T16:59:16.763Z,25.24
2022-08-18T17:02:11.145Z,24.94
2022-08-18T17:04:41.688Z,24.92
2022-08-18T17:07:09.940Z,24.71
2022-08-18T17:09:38.066Z,24.39
2022-08-18T17:12:06.686Z,24.23
2022-08-18T17:14:36.808Z,23.85
2022-08-18T17:17:07.658Z,24.58
2022-08-18T17:19:37.537Z,24.93
2022-08-18T17:22:08.378Z,24.64
2022-08-18T17:24:37.582Z,24.42
2022-08-18T17:27:12.230Z,24.69
2022-08-18T17:30:04.071Z,25.64
2022-08-18T17:32:41.103Z,25.81
2022-08-18T17:35:17.724Z,25.61
2022-08-18T17:37:59.267Z,26.19
2022-08-18T17:40:32.469Z,25.47
2022-08-18T17:43:01.965Z,26.52
2022-08-18T17:45:35.969Z,26.35
2022-08-18T17:48:12.750Z,27.00
2022-08-18T17:51:11.070Z,27.11
2022-08-18T17:53:41.294Z,27.29
2022-08-18T17:56:16.200Z,27.29
2022-08-18T17:58:55.769Z,27.93
2022-08-18T18:01:27.388Z,27.83
2022-08-18T18:03:55.791Z,28.44
2022-08-18T18:06:38.865Z,29.99
2022-08-18T18:09:11.678Z,31.82
2022-08-18T18:11:42.620Z,32.18
2022-08-18T18:14:28.437Z,32.96
2022-08-18T18:17:12.735Z,33.54
2022-08-18T18:19:43.357Z,34.72
2022-08-18T18:22:21.271Z,36.50
2022-08-18T18:24:54.405Z,39.02
2022-08-18T18:27:31.396Z,40.34
2022-08-18T18:30:03.210Z,41.76
2022-08-18T18:32:38.455Z,43.20
2022-08-18T18:35:17.538Z,44.25
2022-08-18T18:37:51.558Z,45.43
2022-08-18T18:40:31.776Z,46.84
2022-08-18T18:43:21.769Z,48.14
2022-08-18T18:46:30.222Z,49.34
2022-08-18T18:49:17.096Z,50.39
2022-08-18T18:52:00.100Z,52.07
2022-08-18T18:54:50.228Z,52.90
2022-08-18T18:57:31.949Z,54.50
2022-08-18T19:00:18.097Z,55.41
2022-08-18T19:03:08.048Z,56.18
2022-08-18T19:05:42.694Z,56.82
2022-08-18T19:08:26.252Z,58.33
2022-08-18T19:11:01.419Z,58.93
2022-08-18T19:13:35.456Z,59.23
2022-08-18T19:16:23.264Z,59.94
2022-08-18T19:18:57.918Z,60.56
2022-08-18T19:22:04.787Z,61.29
2022-08-18T19:24:42.157Z,61.73
2022-08-18T19:27:23.388Z,62.45
2022-08-18T19:30:00.557Z,62.90
2022-08-18T19:32:39.400Z,62.96
2022-08-18T19:35:12.137Z,63.75
2022-08-18T19:38:01.837Z,64.57
2022-08-18T19:40:45.014Z,64.85
2022-08-18T19:43:26.512Z,65.44
2022-08-18T19:46:05.601Z,65.87
2022-08-18T19:48:44.446Z,66.01
2022-08-18T19:51:23.440Z,66.67
2022-08-18T19:54:19.119Z,66.60
2022-08-18T19:57:14.259Z,67.27
2022-08-18T20:00:05.677Z,67.32
2022-08-18T20:03:19.667Z,67.91
2022-08-18T20:06:32.574Z,68.00
2022-08-18T20:09:34.127Z,68.54
2022-08-18T20:12:37.680Z,68.87
2022-08-18T20:15:16.255Z,69.60
2022-08-18T20:18:23.981Z,69.50
2022-08-18T20:21:45.377Z,69.98
2022-08-18T20:24:41.640Z,70.14
2022-08-18T20:27:36.081Z,70.36
2022-08-18T20:30:27.081Z,71.10
2022-08-18T20:33:17.574Z,71.50
2022-08-18T20:35:59.490Z,71.77
2022-08-18T20:38:35.568Z,71.67
2022-08-18T20:41:39.181Z,71.82
2022-08-18T20:44:30.251Z,72.09
2022-08-18T20:47:16.712Z,72.51
2022-08-18T20:49:56.768Z,72.92
2022-08-18T20:52:38.705Z,72.56
2022-08-18T20:55:20.717Z,72.98
2022-08-18T20:57:54.850Z,73.14
2022-08-18T21:00:27.025Z,73.51
2022-08-18T21:02:58.538Z,73.54
2022-08-18T21:05:32.896Z,73.70
2022-08-18T21:08:17.845Z,73.85
2022-08-18T21:10:52.326Z,74.19
2022-08-18T21:13:35.338Z,74.47
2022-08-18T21:16:03.772Z,74.58
2022-08-18T21:18:35.030Z,74.65
2022-08-18T21:21:08.793Z,74.86
2022-08-18T21:23:42.381Z,75.19
2022-08-18T21:26:18.724Z,75.21
2022-08-18T21:28:52.701Z,75.25
2022-08-18T21:31:42.904Z,75.52
2022-08-18T21:34:18.285Z,75.83
2022-08-18T21:36:56.123Z,75.75
2022-08-18T21:39:26.087Z,76.04
2022-08-18T21:41:57.937Z,76.29
2022-08-18T21:44:41.661Z,76.52
2022-08-18T21:47:20.447Z,76.60
2022-08-18T21:50:01.328Z,76.42
2022-08-18T21:52:31.517Z,76.65
2022-08-18T21:55:06.900Z,76.79
2022-08-18T21:58:03.107Z,76.76
2022-08-18T22:00:35.774Z,76.73
2022-08-18T22:03:23.223Z,77.24
2022-08-18T22:06:03.427Z,77.40
2022-08-18T22:08:34.965Z,77.61
2022-08-18T22:11:59.497Z,77.62
2022-08-18T22:14:53.984Z,77.08
2022-08-18T22:17:32.320Z,77.98
2022-08-18T22:20:44.192Z,77.82
2022-08-18T22:23:51.410Z,77.71
2022-08-18T22:26:26.516Z,77.91
2022-08-18T22:29:00.503Z,78.20
2022-08-18T22:31:32.515Z,78.56
2022-08-18T22:34:05.092Z,78.45
2022-08-18T22:36:37.054Z,78.29
2022-08-18T22:39:08.554Z,78.85
2022-08-18T22:41:38.882Z,78.90
2022-08-18T22:44:08.022Z,79.12
2022-08-18T22:46:36.880Z,79.17
2022-08-18T22:49:05.789Z,79.27
2022-08-18T22:51:37.173Z,79.31
2022-08-18T22:54:08.313Z,79.33
2022-08-18T22:56:38.645Z,79.12
2022-08-18T22:59:15.921Z,79.10
2022-08-18T23:01:51.250Z,79.30
2022-08-18T23:04:22.050Z,79.45
2022-08-18T23:06:52.523Z,79.93
2022-08-18T23:09:23.615Z,79.88
2022-08-18T23:11:56.960Z,79.76
2022-08-18T23:14:25.529Z,80.01
2022-08-18T23:16:53.606Z,79.92
2022-08-18T23:19:22.780Z,80.27
2022-08-18T23:21:51.815Z,80.38
2022-08-18T23:24:21.731Z,80.46
2022-08-18T23:26:50.394Z,80.22
2022-08-18T23:29:21.399Z,80.77
2022-08-18T23:31:51.397Z,80.62
2022-08-18T23:34:24.993Z,80.88
2022-08-18T23:36:56.432Z,80.87
2022-08-18T23:39:26.186Z,81.16
2022-08-18T23:41:55.173Z,81.05
2022-08-18T23:44:27.678Z,81.31
2022-08-18T23:46:57.905Z,81.19
2022-08-18T23:49:26.415Z,81.13
2022-08-18T23:51:56.073Z,81.39
2022-08-18T23:54:28.432Z,81.58
2022-08-18T23:56:57.101Z,81.58
2022-08-18T23:59:28.400Z,82.01
